createdAt,value
2023-05-17T00:01:08.859Z,10.52
2023-05-17T00:03:36.579Z,13.82
2023-05-17T00:06:04.231Z,13.77
2023-05-17T00:08:31.833Z,12.05
2023-05-17T00:10:59.356Z,17.23
2023-05-17T00:13:26.925Z,11.55
2023-05-17T00:15:54.416Z,21.92
2023-05-17T00:18:21.828Z,8.45
2023-05-17T00:20:49.312Z,10.70
2023-05-17T00:23:16.828Z,9.82
2023-05-17T00:25:44.355Z,13.23
2023-05-17T00:28:12.255Z,13.93
2023-05-17T00:30:39.775Z,15.13
2023-05-17T00:33:07.332Z,8.77
2023-05-17T00:35:35.039Z,9.07
2023-05-17T00:38:02.588Z,9.65
2023-05-17T00:40:31.333Z,18.45
2023-05-17T00:42:58.831Z,30.42
2023-05-17T00:45:26.413Z,16.42
2023-05-17T00:47:53.965Z,18.58
2023-05-17T00:50:21.665Z,13.68
2023-05-17T00:52:50.724Z,20.38
2023-05-17T00:55:19.284Z,21.15
2023-05-17T00:57:47.118Z,16.45
2023-05-17T01:00:15.249Z,9.20
2023-05-17T01:02:44.059Z,11.90
2023-05-17T01:05:11.526Z,10.90
2023-05-17T01:07:39.678Z,12.73
2023-05-17T01:10:09.211Z,13.15
2023-05-17T01:13:14.120Z,8.75
2023-05-17T01:15:50.353Z,10.88
2023-05-17T01:18:48.304Z,12.27
2023-05-17T01:22:00.516Z,11.93
2023-05-17T01:25:26.360Z,15.07
2023-05-17T01:27:59.207Z,13.13
2023-05-17T01:30:28.083Z,12.85
2023-05-17T01:32:58.570Z,12.63
2023-05-17T01:35:27.024Z,10.10
2023-05-17T01:37:55.012Z,14.25
2023-05-17T01:40:23.675Z,11.70
2023-05-17T01:43:04.555Z,12.20
2023-05-17T01:46:11.252Z,22.48
2023-05-17T01:48:49.445Z,21.77
2023-05-17T01:51:20.444Z,13.23
2023-05-17T01:53:59.955Z,19.80
2023-05-17T01:56:33.805Z,16.35
2023-05-17T01:59:06.037Z,16.15
2023-05-17T02:01:34.529Z,11.40
2023-05-17T02:04:02.807Z,20.60
2023-05-17T02:06:32.746Z,20.08
2023-05-17T02:09:02.207Z,15.43
2023-05-17T02:11:30.046Z,17.60
2023-05-17T02:13:58.310Z,21.40
2023-05-17T02:16:26.448Z,26.40
2023-05-17T02:18:53.953Z,13.75
2023-05-17T02:21:21.505Z,12.93
2023-05-17T02:23:48.988Z,10.57
2023-05-17T02:26:19.838Z,8.25
2023-05-17T02:28:47.188Z,10.20
2023-05-17T02:31:14.733Z,9.73
2023-05-17T02:33:42.437Z,14.93
2023-05-17T02:36:10.478Z,19.88
2023-05-17T02:41:06.690Z,10.13
2023-05-17T02:43:34.270Z,12.85
2023-05-17T02:46:02.015Z,10.85
2023-05-17T02:48:29.569Z,9.52
2023-05-17T02:50:57.012Z,14.48
2023-05-17T02:53:24.877Z,12.63
2023-05-17T02:55:52.414Z,12.18
2023-05-17T02:58:20.086Z,8.75
2023-05-17T03:00:47.673Z,12.60
2023-05-17T03:03:16.589Z,11.98
2023-05-17T03:05:44.042Z,14.82
2023-05-17T03:08:11.626Z,12.05
2023-05-17T03:10:39.584Z,9.18
2023-05-17T03:13:08.764Z,12.25
2023-05-17T03:15:39.407Z,9.77
2023-05-17T03:18:06.984Z,18.55
2023-05-17T03:20:36.439Z,9.95
2023-05-17T03:23:04.036Z,9.65
2023-05-17T03:25:31.570Z,11.48
2023-05-17T03:27:59.277Z,12.98
2023-05-17T03:30:26.927Z,15.30
2023-05-17T03:32:55.102Z,10.50
2023-05-17T03:35:23.028Z,16.20
2023-05-17T03:37:54.762Z,18.70
2023-05-17T03:40:22.505Z,13.55
2023-05-17T03:42:50.916Z,13.07
2023-05-17T03:45:19.742Z,8.10
2023-05-17T03:47:47.362Z,6.85
2023-05-17T03:50:15.410Z,15.70
2023-05-17T03:52:42.947Z,9.25
2023-05-17T03:55:10.505Z,25.10
2023-05-17T03:57:38.180Z,15.63
2023-05-17T04:00:09.996Z,9.88
2023-05-17T04:02:42.033Z,12.30
2023-05-17T04:05:12.487Z,8.23
2023-05-17T04:07:41.542Z,20.30
2023-05-17T04:10:10.333Z,14.82
2023-05-17T04:12:38.080Z,11.63
2023-05-17T04:15:06.617Z,17.05
2023-05-17T04:17:34.470Z,21.33
2023-05-17T04:20:05.773Z,13.02
2023-05-17T04:22:35.118Z,10.90
2023-05-17T04:25:02.772Z,12.90
2023-05-17T04:27:30.344Z,11.60
2023-05-17T04:29:58.022Z,14.70
2023-05-17T04:32:25.694Z,14.68
2023-05-17T04:34:53.327Z,11.00
2023-05-17T04:37:21.087Z,10.05
2023-05-17T04:39:52.370Z,11.02
2023-05-17T04:42:20.887Z,16.25
2023-05-17T04:44:53.891Z,11.68
2023-05-17T04:47:21.660Z,9.68
2023-05-17T04:49:50.896Z,10.57
2023-05-17T04:52:18.486Z,15.00
2023-05-17T04:54:47.142Z,11.32
2023-05-17T04:57:14.927Z,12.18
2023-05-17T04:59:56.278Z,14.70
2023-05-17T05:02:24.233Z,12.10
2023-05-17T05:04:52.032Z,14.35
2023-05-17T05:07:20.258Z,6.13
2023-05-17T05:09:48.854Z,13.85
2023-05-17T05:12:18.384Z,15.00
2023-05-17T05:14:45.832Z,13.63
2023-05-17T05:17:13.835Z,14.73
2023-05-17T05:19:42.657Z,17.70
2023-05-17T05:22:10.806Z,19.05
2023-05-17T05:24:39.813Z,15.35
2023-05-17T05:27:08.092Z,15.80
2023-05-17T05:29:37.354Z,19.77
2023-05-17T05:32:05.510Z,14.93
2023-05-17T05:34:39.363Z,13.25
2023-05-17T05:37:06.945Z,25.42
2023-05-17T05:39:34.821Z,18.58
2023-05-17T05:42:03.649Z,22.52
2023-05-17T05:44:31.746Z,10.90
2023-05-17T05:46:59.395Z,11.57
2023-05-17T05:49:27.456Z,10.40
2023-05-17T05:51:55.565Z,11.40
2023-05-17T05:54:23.691Z,12.93
2023-05-17T05:56:54.005Z,13.77
2023-05-17T05:59:21.620Z,18.23
2023-05-17T06:01:49.252Z,16.50
2023-05-17T06:04:16.814Z,15.32
2023-05-17T06:06:44.476Z,14.02
2023-05-17T06:09:12.318Z,14.60
2023-05-17T06:11:39.891Z,14.88
2023-05-17T06:14:07.776Z,14.88
2023-05-17T06:16:35.337Z,11.18
2023-05-17T06:19:03.585Z,11.68
2023-05-17T06:21:31.299Z,19.17
2023-05-17T06:23:58.769Z,11.43
2023-05-17T06:26:26.949Z,15.88
2023-05-17T06:28:54.499Z,18.37
2023-05-17T06:31:21.998Z,16.88
2023-05-17T06:33:49.747Z,12.35
2023-05-17T06:36:17.252Z,14.82
2023-05-17T06:38:44.881Z,19.65
2023-05-17T06:41:12.722Z,6.88
2023-05-17T06:43:40.184Z,9.57
2023-05-17T06:46:07.610Z,13.00
2023-05-17T06:48:35.256Z,13.65
2023-05-17T06:51:03.042Z,16.95
2023-05-17T06:53:30.719Z,9.85
2023-05-17T06:55:58.451Z,15.65
2023-05-17T06:58:26.266Z,13.85
2023-05-17T07:00:53.858Z,13.10
2023-05-17T07:03:21.474Z,15.48
2023-05-17T07:05:48.890Z,7.10
2023-05-17T07:08:16.347Z,17.33
2023-05-17T07:10:44.107Z,14.30
2023-05-17T07:13:11.664Z,6.53
2023-05-17T07:15:39.203Z,9.15
2023-05-17T07:18:07.074Z,13.98
2023-05-17T07:20:34.661Z,17.48
2023-05-17T07:23:02.215Z,22.23
2023-05-17T07:25:31.218Z,13.10
2023-05-17T07:30:26.334Z,10.75
2023-05-17T07:32:55.999Z,7.13
2023-05-17T07:35:23.750Z,14.77
2023-05-17T07:37:51.387Z,10.35
2023-05-17T07:40:19.084Z,8.63
2023-05-17T07:42:46.685Z,14.77
2023-05-17T07:45:14.207Z,12.43
2023-05-17T07:47:41.857Z,10.90
2023-05-17T07:50:10.244Z,13.40
2023-05-17T07:52:37.907Z,10.43
2023-05-17T07:55:06.213Z,11.68
2023-05-17T07:57:33.783Z,5.68
2023-05-17T08:00:01.362Z,12.30
2023-05-17T08:02:39.979Z,9.13
2023-05-17T08:05:08.133Z,16.15
2023-05-17T08:07:35.540Z,13.30
2023-05-17T08:10:03.516Z,14.88
2023-05-17T08:12:31.069Z,22.70
2023-05-17T08:14:58.845Z,19.38
2023-05-17T08:17:26.418Z,13.65
2023-05-17T08:19:53.866Z,15.55
2023-05-17T08:22:21.596Z,14.52
2023-05-17T08:24:49.284Z,18.83
2023-05-17T08:27:16.846Z,16.25
2023-05-17T08:29:44.296Z,11.45
2023-05-17T08:32:11.710Z,15.15
2023-05-17T08:34:39.312Z,11.32
2023-05-17T08:37:07.452Z,8.85
2023-05-17T08:39:35.367Z,9.75
2023-05-17T08:42:06.576Z,10.43
2023-05-17T08:44:35.832Z,12.60
2023-05-17T08:47:05.900Z,17.20
2023-05-17T08:49:34.030Z,19.60
2023-05-17T08:52:09.065Z,11.70
2023-05-17T08:54:37.265Z,13.45
2023-05-17T08:57:06.621Z,18.58
2023-05-17T08:59:34.657Z,13.35
2023-05-17T09:02:02.878Z,10.53
2023-05-17T09:04:30.836Z,12.00
2023-05-17T09:06:58.493Z,11.32
2023-05-17T09:09:27.108Z,15.23
2023-05-17T09:11:54.893Z,11.63
2023-05-17T09:14:22.462Z,10.75
2023-05-17T09:16:57.495Z,23.20
2023-05-17T09:19:25.046Z,12.38
2023-05-17T09:21:54.719Z,14.02
2023-05-17T09:24:30.580Z,14.65
2023-05-17T09:27:03.109Z,21.70
2023-05-17T09:29:32.096Z,14.18
2023-05-17T09:32:20.357Z,14.30
2023-05-17T09:34:48.585Z,18.58
2023-05-17T09:37:18.380Z,14.27
2023-05-17T09:39:47.993Z,7.45
2023-05-17T09:42:16.325Z,11.15
2023-05-17T09:44:52.765Z,14.30
2023-05-17T09:47:28.175Z,4.93
2023-05-17T09:50:01.988Z,22.60
2023-05-17T09:52:34.496Z,15.57
2023-05-17T09:55:02.297Z,15.52
2023-05-17T09:57:38.367Z,13.85
2023-05-17T10:00:11.862Z,18.40
2023-05-17T10:02:45.631Z,11.20
2023-05-17T10:05:14.165Z,12.30
2023-05-17T10:07:41.966Z,15.55
2023-05-17T10:10:10.473Z,13.43
2023-05-17T10:12:39.999Z,6.18
2023-05-17T10:15:10.605Z,12.43
2023-05-17T10:17:42.880Z,9.25
2023-05-17T10:20:14.041Z,14.20
2023-05-17T10:22:42.040Z,9.35
2023-05-17T10:25:10.095Z,10.35
2023-05-17T10:27:37.746Z,14.53
2023-05-17T10:30:07.619Z,7.50
2023-05-17T10:32:36.076Z,9.63
2023-05-17T10:35:11.351Z,16.45
2023-05-17T10:37:41.096Z,12.73
2023-05-17T10:40:13.305Z,15.48
2023-05-17T10:42:51.189Z,18.63
2023-05-17T10:45:24.922Z,14.30
2023-05-17T10:47:53.541Z,8.75
2023-05-17T10:50:23.998Z,15.90
2023-05-17T10:52:55.228Z,16.58
2023-05-17T10:55:34.379Z,10.32
2023-05-17T10:58:17.630Z,14.23
2023-05-17T11:00:55.292Z,14.38
2023-05-17T11:03:28.855Z,17.00
2023-05-17T11:06:24.561Z,13.23
2023-05-17T11:09:13.241Z,9.10
2023-05-17T11:12:08.068Z,10.82
2023-05-17T11:14:44.686Z,7.85
2023-05-17T11:17:27.422Z,15.18
2023-05-17T11:19:58.627Z,10.70
2023-05-17T11:22:27.156Z,9.15
2023-05-17T11:24:57.282Z,7.47
2023-05-17T11:27:29.020Z,13.25
2023-05-17T11:29:57.870Z,10.90
2023-05-17T11:32:31.201Z,10.55
2023-05-17T11:35:02.113Z,10.80
2023-05-17T11:37:30.741Z,17.05
2023-05-17T11:40:09.847Z,20.75
2023-05-17T11:42:38.915Z,10.82
2023-05-17T11:45:08.438Z,19.17
2023-05-17T11:47:40.152Z,9.73
2023-05-17T11:50:08.813Z,17.42
2023-05-17T11:52:36.503Z,19.40
2023-05-17T11:55:05.116Z,18.17
2023-05-17T11:57:32.854Z,12.48
2023-05-17T12:00:03.781Z,12.75
2023-05-17T12:02:39.873Z,15.93
2023-05-17T12:05:08.821Z,14.27
2023-05-17T12:10:05.884Z,13.70
2023-05-17T12:15:00.954Z,14.13
2023-05-17T12:17:36.641Z,15.10
2023-05-17T12:20:08.803Z,13.52
2023-05-17T12:22:55.569Z,13.05
2023-05-17T12:25:28.806Z,8.93
2023-05-17T12:28:21.511Z,8.77
2023-05-17T12:30:53.923Z,12.40
2023-05-17T12:33:21.557Z,13.40
2023-05-17T12:35:49.664Z,13.75
2023-05-17T12:38:18.842Z,11.90
2023-05-17T12:40:46.895Z,17.25
2023-05-17T12:43:14.469Z,13.05
2023-05-17T12:45:42.108Z,7.30
2023-05-17T12:48:10.024Z,16.23
2023-05-17T12:50:38.752Z,15.02
2023-05-17T12:53:09.465Z,15.57
2023-05-17T12:55:37.970Z,18.80
2023-05-17T12:58:05.712Z,16.67
2023-05-17T13:00:33.498Z,9.13
2023-05-17T13:03:01.300Z,15.95
2023-05-17T13:05:29.083Z,19.52
2023-05-17T13:07:56.676Z,13.45
2023-05-17T13:10:27.004Z,15.63
2023-05-17T13:12:59.893Z,20.75
2023-05-17T13:15:32.658Z,13.23
2023-05-17T13:18:11.596Z,20.23
2023-05-17T13:23:06.685Z,16.98
2023-05-17T13:25:36.031Z,17.33
2023-05-17T13:28:03.735Z,12.38
2023-05-17T13:30:31.374Z,14.18
2023-05-17T13:32:59.013Z,15.32
2023-05-17T13:35:26.715Z,13.52
2023-05-17T13:37:54.126Z,25.20
2023-05-17T13:40:21.775Z,19.73
2023-05-17T13:42:49.320Z,14.25
2023-05-17T13:45:17.054Z,15.60
2023-05-17T13:47:45.084Z,17.93
2023-05-17T13:50:15.349Z,18.13
2023-05-17T13:52:43.946Z,20.17
2023-05-17T13:55:11.599Z,13.43
2023-05-17T13:57:39.209Z,14.77
2023-05-17T14:00:07.965Z,9.05
2023-05-17T14:02:36.683Z,15.70
2023-05-17T14:05:06.666Z,10.18
2023-05-17T14:07:34.179Z,10.57
2023-05-17T14:10:01.810Z,9.25
2023-05-17T14:12:29.354Z,10.82
2023-05-17T14:14:56.770Z,10.07
2023-05-17T14:17:25.647Z,12.75
2023-05-17T14:19:53.347Z,12.70
2023-05-17T14:22:21.319Z,13.05
2023-05-17T14:24:48.894Z,18.08
2023-05-17T14:27:16.545Z,9.35
2023-05-17T14:29:44.127Z,6.43
2023-05-17T14:32:13.486Z,13.40
2023-05-17T14:34:41.122Z,13.75
2023-05-17T14:37:08.872Z,17.75
2023-05-17T14:39:36.431Z,12.55
2023-05-17T14:42:04.564Z,9.15
2023-05-17T14:44:34.081Z,19.63
2023-05-17T14:47:01.631Z,9.73
2023-05-17T14:49:29.138Z,12.32
2023-05-17T14:51:56.706Z,16.02
2023-05-17T14:54:25.697Z,15.20
2023-05-17T14:56:53.333Z,12.18
2023-05-17T14:59:20.838Z,9.48
2023-05-17T15:01:48.358Z,19.77
2023-05-17T15:04:16.192Z,15.07
2023-05-17T15:06:43.984Z,21.45
2023-05-17T15:09:13.560Z,17.25
2023-05-17T15:11:41.446Z,32.17
2023-05-17T15:14:09.351Z,20.48
2023-05-17T15:16:37.935Z,17.73
2023-05-17T15:19:06.024Z,12.57
2023-05-17T15:21:33.689Z,15.00
2023-05-17T15:24:01.123Z,18.20
2023-05-17T15:26:28.653Z,17.77
2023-05-17T15:28:57.159Z,17.80
2023-05-17T15:31:24.552Z,20.40
2023-05-17T15:33:52.215Z,24.85
2023-05-17T15:36:19.688Z,20.33
2023-05-17T15:38:47.191Z,15.02
2023-05-17T15:41:16.924Z,15.45
2023-05-17T15:43:45.436Z,10.65
2023-05-17T15:46:13.197Z,9.07
2023-05-17T15:48:41.305Z,12.63
2023-05-17T15:51:09.503Z,5.20
2023-05-17T15:53:37.354Z,5.43
2023-05-17T15:56:05.202Z,9.38
2023-05-17T15:58:33.631Z,9.27
2023-05-17T16:01:05.482Z,9.23
2023-05-17T16:03:33.661Z,6.88
2023-05-17T16:06:03.548Z,7.03
2023-05-17T16:08:31.097Z,4.75
2023-05-17T16:11:00.339Z,8.85
2023-05-17T16:13:30.300Z,5.88
2023-05-17T16:15:59.391Z,12.07
2023-05-17T16:21:03.754Z,16.42
2023-05-17T16:23:31.869Z,10.10
2023-05-17T16:25:59.438Z,7.78
2023-05-17T16:28:26.942Z,16.15
2023-05-17T16:30:54.617Z,17.60
2023-05-17T16:33:22.402Z,18.48
2023-05-17T16:35:50.083Z,14.20
2023-05-17T16:38:17.647Z,16.17
2023-05-17T16:40:45.428Z,28.10
2023-05-17T16:43:15.378Z,27.17
2023-05-17T16:45:46.408Z,28.63
2023-05-17T16:48:15.077Z,27.15
2023-05-17T16:50:42.956Z,31.45
2023-05-17T16:53:11.367Z,18.35
2023-05-17T16:55:38.924Z,13.45
2023-05-17T16:58:06.813Z,19.42
2023-05-17T17:00:34.598Z,18.42
2023-05-17T17:03:02.324Z,16.05
2023-05-17T17:05:29.974Z,17.65
2023-05-17T17:07:57.852Z,15.95
2023-05-17T17:10:26.006Z,18.88
2023-05-17T17:12:53.656Z,13.47
2023-05-17T17:15:22.360Z,10.52
2023-05-17T17:17:49.929Z,18.13
2023-05-17T17:20:17.704Z,11.98
2023-05-17T17:22:45.909Z,14.23
2023-05-17T17:25:13.597Z,24.38
2023-05-17T17:27:41.570Z,9.80
2023-05-17T17:30:09.694Z,13.50
2023-05-17T17:32:37.467Z,15.07
2023-05-17T17:35:06.028Z,21.42
2023-05-17T17:37:33.667Z,20.90
2023-05-17T17:40:01.722Z,23.85
2023-05-17T17:42:31.412Z,24.27
2023-05-17T17:44:59.669Z,13.45
2023-05-17T17:47:27.297Z,7.47
2023-05-17T17:49:54.753Z,10.40
2023-05-17T17:52:22.381Z,12.07
2023-05-17T17:54:50.091Z,13.98
2023-05-17T17:57:18.812Z,8.05
2023-05-17T17:59:46.590Z,10.18
2023-05-17T18:02:14.148Z,8.73
2023-05-17T18:04:41.970Z,10.80
2023-05-17T18:07:11.785Z,16.50
2023-05-17T18:09:39.347Z,12.07
2023-05-17T18:12:07.810Z,11.50
2023-05-17T18:14:35.463Z,11.80
2023-05-17T18:17:03.328Z,20.27
2023-05-17T18:19:31.055Z,17.60
2023-05-17T18:21:58.509Z,18.00
2023-05-17T18:24:26.121Z,18.10
2023-05-17T18:26:53.806Z,15.10
2023-05-17T18:29:21.372Z,24.35
2023-05-17T18:31:49.423Z,9.38
2023-05-17T18:34:18.047Z,14.88
2023-05-17T18:36:45.755Z,9.27
2023-05-17T18:39:13.563Z,6.50
2023-05-17T18:41:41.178Z,6.88
2023-05-17T18:44:08.808Z,11.45
2023-05-17T18:46:36.595Z,10.00
2023-05-17T18:49:04.885Z,8.65
2023-05-17T18:51:32.894Z,10.23
2023-05-17T18:54:00.504Z,9.88
2023-05-17T18:56:29.787Z,10.50
2023-05-17T18:58:57.691Z,10.30
2023-05-17T19:01:26.718Z,11.63
2023-05-17T19:06:24.499Z,14.60
2023-05-17T19:08:52.143Z,12.07
2023-05-17T19:11:21.932Z,12.98
2023-05-17T19:13:49.974Z,17.02
2023-05-17T19:16:17.621Z,11.15
2023-05-17T19:18:45.232Z,8.68
2023-05-17T19:21:12.902Z,14.45
2023-05-17T19:23:40.625Z,8.05
2023-05-17T19:26:08.423Z,11.73
2023-05-17T19:28:38.891Z,16.48
2023-05-17T19:31:07.691Z,15.27
2023-05-17T19:33:37.036Z,14.13
2023-05-17T19:36:04.808Z,12.68
2023-05-17T19:38:32.882Z,11.57
2023-05-17T19:41:01.269Z,8.93
2023-05-17T19:43:28.937Z,10.60
2023-05-17T19:45:56.430Z,11.50
2023-05-17T19:48:24.291Z,9.48
2023-05-17T19:50:54.881Z,14.07
2023-05-17T19:53:24.101Z,7.60
2023-05-17T19:55:51.865Z,11.30
2023-05-17T19:58:19.598Z,9.13
2023-05-17T20:00:47.047Z,13.50
2023-05-17T20:03:14.921Z,10.63
2023-05-17T20:05:42.694Z,10.35
2023-05-17T20:08:10.345Z,10.15
2023-05-17T20:10:37.956Z,7.47
2023-05-17T20:13:05.578Z,10.10
2023-05-17T20:15:33.217Z,6.57
2023-05-17T20:18:00.941Z,6.93
2023-05-17T20:20:28.855Z,19.38
2023-05-17T20:22:56.736Z,12.95
2023-05-17T20:25:24.117Z,20.45
2023-05-17T20:27:51.936Z,16.45
2023-05-17T20:30:19.430Z,23.98
2023-05-17T20:32:47.124Z,28.00
2023-05-17T20:35:14.936Z,21.55
2023-05-17T20:37:42.647Z,23.48
2023-05-17T20:40:10.662Z,31.45
2023-05-17T20:42:39.812Z,23.80
2023-05-17T20:47:36.166Z,27.95
2023-05-17T20:50:05.560Z,28.40
2023-05-17T20:52:39.298Z,24.35
2023-05-17T20:55:10.803Z,27.02
2023-05-17T20:57:38.246Z,29.38
2023-05-17T21:00:10.937Z,31.45
2023-05-17T21:02:39.026Z,24.27
2023-05-17T21:05:09.551Z,21.75
2023-05-17T21:07:40.143Z,23.95
2023-05-17T21:10:09.142Z,29.05
2023-05-17T21:15:16.516Z,19.40
2023-05-17T21:17:44.813Z,20.85
2023-05-17T21:20:13.054Z,24.17
2023-05-17T21:22:40.628Z,30.40
2023-05-17T21:25:09.117Z,22.27
2023-05-17T21:27:36.733Z,22.02
2023-05-17T21:30:04.838Z,25.38
2023-05-17T21:32:32.435Z,36.05
2023-05-17T21:35:00.304Z,33.20
2023-05-17T21:37:27.886Z,23.23
2023-05-17T21:39:55.359Z,39.92
2023-05-17T21:42:23.298Z,33.80
2023-05-17T21:44:50.820Z,24.98
2023-05-17T21:47:18.243Z,25.38
2023-05-17T21:49:45.732Z,29.63
2023-05-17T21:52:13.398Z,18.70
2023-05-17T21:54:41.121Z,20.88
2023-05-17T21:57:08.833Z,26.52
2023-05-17T21:59:36.347Z,29.10
2023-05-17T22:02:04.100Z,31.35
2023-05-17T22:04:31.633Z,31.38
2023-05-17T22:06:59.231Z,22.08
2023-05-17T22:09:27.042Z,30.23
2023-05-17T22:11:58.120Z,24.77
2023-05-17T22:14:32.727Z,27.17
2023-05-17T22:17:00.404Z,34.25
2023-05-17T22:19:29.693Z,24.45
2023-05-17T22:21:57.370Z,28.30
2023-05-17T22:24:25.134Z,17.88
2023-05-17T22:26:52.575Z,18.70
2023-05-17T22:29:20.313Z,22.27
2023-05-17T22:31:49.521Z,16.52
2023-05-17T22:36:44.624Z,9.55
2023-05-17T22:39:12.236Z,15.70
2023-05-17T22:41:39.988Z,17.85
2023-05-17T22:44:07.682Z,23.55
2023-05-17T22:46:37.220Z,22.85
2023-05-17T22:49:04.734Z,23.85
2023-05-17T22:51:34.492Z,27.50
2023-05-17T22:54:02.745Z,20.27
2023-05-17T22:56:30.650Z,27.80
2023-05-17T22:58:58.651Z,21.80
2023-05-17T23:01:26.388Z,24.70
2023-05-17T23:03:53.996Z,21.70
2023-05-17T23:06:21.569Z,26.10
2023-05-17T23:08:49.346Z,32.30
2023-05-17T23:11:17.403Z,21.50
2023-05-17T23:13:45.231Z,24.67
2023-05-17T23:16:13.417Z,20.30
2023-05-17T23:18:41.189Z,16.90
2023-05-17T23:21:09.120Z,26.20
2023-05-17T23:23:37.417Z,32.05
2023-05-17T23:26:05.427Z,29.38
2023-05-17T23:28:33.135Z,19.35
2023-05-17T23:31:05.280Z,20.85
2023-05-17T23:33:32.969Z,19.52
2023-05-17T23:36:00.690Z,18.63
2023-05-17T23:38:28.346Z,20.13
2023-05-17T23:40:57.571Z,27.42
2023-05-17T23:45:52.916Z,18.15
2023-05-17T23:48:20.577Z,21.02
2023-05-17T23:50:48.206Z,24.48
2023-05-17T23:53:17.883Z,25.35
2023-05-17T23:55:46.058Z,21.75
2023-05-17T23:58:13.636Z,19.95
